createdAt,value
2023-04-07T00:00:18.894Z,11.15
2023-04-07T00:02:48.964Z,9.07
2023-04-07T00:05:19.078Z,10.05
2023-04-07T00:07:55.801Z,11.05
2023-04-07T00:10:26.244Z,10.75
2023-04-07T00:12:54.821Z,8.75
2023-04-07T00:15:23.357Z,11.10
2023-04-07T00:17:52.065Z,9.07
2023-04-07T00:20:22.064Z,9.73
2023-04-07T00:22:50.832Z,8.80
2023-04-07T00:25:19.539Z,9.43
2023-04-07T00:27:48.095Z,8.27
2023-04-07T00:30:18.647Z,8.77
2023-04-07T00:32:47.458Z,8.68
2023-04-07T00:35:16.175Z,9.20
2023-04-07T00:37:47.116Z,7.28
2023-04-07T00:40:16.616Z,8.15
2023-04-07T00:42:46.420Z,9.18
2023-04-07T00:45:15.045Z,8.45
2023-04-07T00:47:44.308Z,9.77
2023-04-07T00:50:13.113Z,8.73
2023-04-07T00:52:42.578Z,10.27
2023-04-07T00:55:12.592Z,8.50
2023-04-07T00:57:41.852Z,10.25
2023-04-07T01:00:11.883Z,9.52
2023-04-07T01:02:44.675Z,9.10
2023-04-07T01:05:18.461Z,10.70
2023-04-07T01:08:02.266Z,10.65
2023-04-07T01:10:39.149Z,10.48
2023-04-07T01:13:23.817Z,9.88
2023-04-07T01:15:59.355Z,12.00
2023-04-07T01:18:34.788Z,10.55
2023-04-07T01:21:07.597Z,9.88
2023-04-07T01:23:51.240Z,9.90
2023-04-07T01:26:26.207Z,8.93
2023-04-07T01:29:31.521Z,10.95
2023-04-07T01:32:03.628Z,10.45
2023-04-07T01:37:06.397Z,9.73
2023-04-07T01:39:36.380Z,10.73
2023-04-07T01:42:06.499Z,8.40
2023-04-07T01:44:35.791Z,11.10
2023-04-07T01:47:06.851Z,9.68
2023-04-07T01:49:37.068Z,9.40
2023-04-07T01:52:06.533Z,9.70
2023-04-07T01:54:35.866Z,10.80
2023-04-07T01:57:04.643Z,9.90
2023-04-07T01:59:33.871Z,10.48
2023-04-07T02:02:03.862Z,11.15
2023-04-07T02:04:39.514Z,12.30
2023-04-07T02:07:12.912Z,12.65
2023-04-07T02:09:47.809Z,11.48
2023-04-07T02:12:17.973Z,12.02
2023-04-07T02:14:59.122Z,12.13
2023-04-07T02:17:29.695Z,10.95
2023-04-07T02:20:02.608Z,11.73
2023-04-07T02:22:31.954Z,12.23
2023-04-07T02:25:00.411Z,13.82
2023-04-07T02:27:29.276Z,11.18
2023-04-07T02:29:57.767Z,12.27
2023-04-07T02:32:26.421Z,13.60
2023-04-07T02:34:55.075Z,13.70
2023-04-07T02:37:25.145Z,13.20
2023-04-07T02:39:53.790Z,10.80
2023-04-07T02:42:25.256Z,11.10
2023-04-07T02:44:54.920Z,11.98
2023-04-07T02:47:23.316Z,12.73
2023-04-07T02:49:51.782Z,13.02
2023-04-07T02:52:21.001Z,12.23
2023-04-07T02:54:50.766Z,13.75
2023-04-07T02:57:23.065Z,13.05
2023-04-07T02:59:56.136Z,13.50
2023-04-07T03:02:26.512Z,13.48
2023-04-07T03:04:55.261Z,14.02
2023-04-07T03:07:28.335Z,14.95
2023-04-07T03:10:00.801Z,15.65
2023-04-07T03:12:29.395Z,13.85
2023-04-07T03:14:58.157Z,13.40
2023-04-07T03:17:28.484Z,13.35
2023-04-07T03:19:57.141Z,12.82
2023-04-07T03:22:27.502Z,13.95
2023-04-07T03:24:56.591Z,14.88
2023-04-07T03:27:28.696Z,14.48
2023-04-07T03:29:57.189Z,14.80
2023-04-07T03:32:28.166Z,15.73
2023-04-07T03:34:58.042Z,16.08
2023-04-07T03:37:27.773Z,14.15
2023-04-07T03:39:56.976Z,15.02
2023-04-07T03:42:34.094Z,14.45
2023-04-07T03:45:06.312Z,14.60
2023-04-07T03:47:37.985Z,17.70
2023-04-07T03:50:08.830Z,16.30
2023-04-07T03:52:47.263Z,15.30
2023-04-07T03:55:24.542Z,16.55
2023-04-07T03:57:58.899Z,17.85
2023-04-07T04:00:33.457Z,14.75
2023-04-07T04:03:14.376Z,16.83
2023-04-07T04:05:52.813Z,15.65
2023-04-07T04:08:28.388Z,13.55
2023-04-07T04:10:57.497Z,15.77
2023-04-07T04:13:31.629Z,14.38
2023-04-07T04:16:06.293Z,17.70
2023-04-07T04:18:36.156Z,17.00
2023-04-07T04:21:09.435Z,17.88
2023-04-07T04:23:40.907Z,16.33
2023-04-07T04:26:09.672Z,17.05
2023-04-07T04:28:41.234Z,15.88
2023-04-07T04:31:10.551Z,18.67
2023-04-07T04:33:43.126Z,19.00
2023-04-07T04:36:12.350Z,19.52
2023-04-07T04:38:42.450Z,18.92
2023-04-07T04:41:22.766Z,14.10
2023-04-07T04:43:54.288Z,17.83
2023-04-07T04:46:26.520Z,17.77
2023-04-07T04:48:56.938Z,16.73
2023-04-07T04:51:30.272Z,16.25
2023-04-07T04:54:06.453Z,15.68
2023-04-07T04:56:35.892Z,14.50
2023-04-07T04:59:09.619Z,14.88
2023-04-07T05:01:47.671Z,15.98
2023-04-07T05:04:19.010Z,15.90
2023-04-07T05:06:57.047Z,14.73
2023-04-07T05:09:29.629Z,15.75
2023-04-07T05:11:59.131Z,13.80
2023-04-07T05:14:30.831Z,14.57
2023-04-07T05:17:09.229Z,13.45
2023-04-07T05:19:38.070Z,14.38
2023-04-07T05:22:15.132Z,13.80
2023-04-07T05:24:50.954Z,13.70
2023-04-07T05:27:20.113Z,13.32
2023-04-07T05:29:54.593Z,15.15
2023-04-07T05:32:30.843Z,13.60
2023-04-07T05:35:10.863Z,15.85
2023-04-07T05:37:44.084Z,13.48
2023-04-07T05:40:14.827Z,17.05
2023-04-07T05:42:43.586Z,16.45
2023-04-07T05:45:14.445Z,13.43
2023-04-07T05:47:50.103Z,13.50
2023-04-07T05:50:24.166Z,14.18
2023-04-07T05:52:52.992Z,12.15
2023-04-07T05:55:27.613Z,14.02
2023-04-07T05:57:57.313Z,14.52
2023-04-07T06:00:31.474Z,13.88
2023-04-07T06:03:12.473Z,15.48
2023-04-07T06:06:12.223Z,14.40
2023-04-07T06:08:40.865Z,12.18
2023-04-07T06:11:09.621Z,14.63
2023-04-07T06:13:39.559Z,11.02
2023-04-07T06:16:10.252Z,12.32
2023-04-07T06:18:40.028Z,14.15
2023-04-07T06:21:08.642Z,17.85
2023-04-07T06:23:37.282Z,19.80
2023-04-07T06:26:12.062Z,18.58
2023-04-07T06:28:40.920Z,19.95
2023-04-07T06:31:11.009Z,17.80
2023-04-07T06:33:40.680Z,16.17
2023-04-07T06:36:09.402Z,15.40
2023-04-07T06:38:38.143Z,16.33
2023-04-07T06:41:07.982Z,13.00
2023-04-07T06:43:36.701Z,15.70
2023-04-07T06:46:06.435Z,17.60
2023-04-07T06:48:36.619Z,13.90
2023-04-07T06:51:05.746Z,13.88
2023-04-07T06:53:34.343Z,14.38
2023-04-07T06:56:07.536Z,13.63
2023-04-07T06:58:37.026Z,15.25
2023-04-07T07:01:07.338Z,13.27
2023-04-07T07:03:37.389Z,13.05
2023-04-07T07:06:06.725Z,12.38
2023-04-07T07:08:35.626Z,12.85
2023-04-07T07:11:04.235Z,13.00
2023-04-07T07:13:32.678Z,17.38
2023-04-07T07:16:01.467Z,16.88
2023-04-07T07:18:31.686Z,14.75
2023-04-07T07:21:01.819Z,16.05
2023-04-07T07:23:30.478Z,14.77
2023-04-07T07:25:59.100Z,16.50
2023-04-07T07:28:29.278Z,14.02
2023-04-07T07:30:58.291Z,11.65
2023-04-07T07:33:27.308Z,12.73
2023-04-07T07:35:55.824Z,14.52
2023-04-07T07:38:27.713Z,15.27
2023-04-07T07:43:24.915Z,14.07
2023-04-07T07:45:53.396Z,12.93
2023-04-07T07:48:22.123Z,11.55
2023-04-07T07:50:51.724Z,15.77
2023-04-07T07:53:20.741Z,13.00
2023-04-07T07:55:50.937Z,12.88
2023-04-07T07:58:19.738Z,21.25
2023-04-07T08:00:48.967Z,18.25
2023-04-07T08:03:20.133Z,13.27
2023-04-07T08:05:50.646Z,12.10
2023-04-07T08:08:19.283Z,21.73
2023-04-07T08:10:47.989Z,15.75
2023-04-07T08:13:18.335Z,11.23
2023-04-07T08:15:47.279Z,13.02
2023-04-07T08:18:15.812Z,14.65
2023-04-07T08:20:44.305Z,19.75
2023-04-07T08:23:13.111Z,26.77
2023-04-07T08:25:41.969Z,17.85
2023-04-07T08:28:10.923Z,21.38
2023-04-07T08:30:40.856Z,26.70
2023-04-07T08:33:09.516Z,23.27
2023-04-07T08:35:38.999Z,113.28
2023-04-07T08:38:09.332Z,16.42
2023-04-07T08:40:38.272Z,19.15
2023-04-07T08:43:10.737Z,16.83
2023-04-07T08:45:43.448Z,16.92
2023-04-07T08:48:19.314Z,16.25
2023-04-07T08:50:53.440Z,15.23
2023-04-07T08:53:29.656Z,16.30
2023-04-07T08:55:58.896Z,18.88
2023-04-07T08:58:29.690Z,22.95
2023-04-07T09:01:00.263Z,21.02
2023-04-07T09:03:29.699Z,22.40
2023-04-07T09:05:58.788Z,18.95
2023-04-07T09:08:27.421Z,20.02
2023-04-07T09:10:57.940Z,20.15
2023-04-07T09:13:27.008Z,19.98
2023-04-07T09:15:56.258Z,23.48
2023-04-07T09:18:26.394Z,26.77
2023-04-07T09:21:02.597Z,35.85
2023-04-07T09:23:33.208Z,29.10
2023-04-07T09:26:19.659Z,30.13
2023-04-07T09:28:50.736Z,37.38
2023-04-07T09:31:19.681Z,60.07
2023-04-07T09:33:50.630Z,35.15
2023-04-07T09:36:19.686Z,27.83
2023-04-07T09:38:48.487Z,26.33
2023-04-07T09:41:18.310Z,29.85
2023-04-07T09:43:48.624Z,37.40
2023-04-07T09:46:19.150Z,30.23
2023-04-07T09:48:50.121Z,28.15
2023-04-07T09:51:19.971Z,20.23
2023-04-07T09:53:51.073Z,27.38
2023-04-07T09:56:22.622Z,23.63
2023-04-07T09:58:53.386Z,26.50
2023-04-07T10:01:23.748Z,20.42
2023-04-07T10:03:56.492Z,24.90
2023-04-07T10:06:27.844Z,22.55
2023-04-07T10:08:56.501Z,23.33
2023-04-07T10:11:25.634Z,19.98
2023-04-07T10:13:54.572Z,25.70
2023-04-07T10:16:24.941Z,21.38
2023-04-07T10:18:55.717Z,30.40
2023-04-07T10:21:24.951Z,47.58
2023-04-07T10:24:06.178Z,60.30
2023-04-07T10:26:39.523Z,45.57
2023-04-07T10:29:13.119Z,12.95
2023-04-07T10:31:42.636Z,12.85
2023-04-07T10:34:12.741Z,11.05
2023-04-07T10:37:13.681Z,10.73
2023-04-07T10:39:42.459Z,9.95
2023-04-07T10:42:46.717Z,9.25
2023-04-07T10:45:16.084Z,8.35
2023-04-07T10:48:12.526Z,11.38
2023-04-07T10:50:43.188Z,8.57
2023-04-07T10:53:13.496Z,9.30
2023-04-07T10:55:43.990Z,12.35
2023-04-07T10:58:24.360Z,9.68
2023-04-07T11:01:23.943Z,9.05
2023-04-07T11:04:01.548Z,8.75
2023-04-07T11:06:31.810Z,7.47
2023-04-07T11:09:00.757Z,7.80
2023-04-07T11:11:41.950Z,9.43
2023-04-07T11:14:11.034Z,6.40
2023-04-07T11:16:45.194Z,7.82
2023-04-07T11:19:14.244Z,7.80
2023-04-07T11:21:44.638Z,5.35
2023-04-07T11:24:33.298Z,6.43
2023-04-07T11:27:02.452Z,6.97
2023-04-07T11:29:32.164Z,6.93
2023-04-07T11:32:02.541Z,6.05
2023-04-07T11:34:32.304Z,6.15
2023-04-07T11:37:21.081Z,6.78
2023-04-07T11:39:54.177Z,5.55
2023-04-07T11:42:33.961Z,5.60
2023-04-07T11:45:02.981Z,5.55
2023-04-07T11:47:37.941Z,6.40
2023-04-07T11:50:08.365Z,11.10
2023-04-07T11:52:44.996Z,13.40
2023-04-07T11:55:24.387Z,8.73
2023-04-07T11:57:53.573Z,8.18
2023-04-07T12:00:23.120Z,8.60
2023-04-07T12:02:52.752Z,6.88
2023-04-07T12:05:22.104Z,8.30
2023-04-07T12:07:56.695Z,7.47
2023-04-07T12:10:26.919Z,7.75
2023-04-07T12:12:59.330Z,7.93
2023-04-07T12:15:28.563Z,7.10
2023-04-07T12:17:57.468Z,6.32
2023-04-07T12:20:26.444Z,7.18
2023-04-07T12:22:58.190Z,5.03
2023-04-07T12:25:27.698Z,6.88
2023-04-07T12:27:56.396Z,6.63
2023-04-07T12:30:25.479Z,5.97
2023-04-07T12:32:54.631Z,5.75
2023-04-07T12:35:23.292Z,4.97
2023-04-07T12:37:53.148Z,4.95
2023-04-07T12:40:24.061Z,5.63
2023-04-07T12:42:52.513Z,5.43
2023-04-07T12:45:21.337Z,5.70
2023-04-07T12:47:50.166Z,6.18
2023-04-07T12:50:18.968Z,4.95
2023-04-07T12:52:48.728Z,4.47
2023-04-07T12:55:17.276Z,4.43
2023-04-07T12:57:48.846Z,6.47
2023-04-07T13:00:18.133Z,5.35
2023-04-07T13:02:47.118Z,6.18
2023-04-07T13:05:16.215Z,5.50
2023-04-07T13:07:44.906Z,4.72
2023-04-07T13:10:13.820Z,6.72
2023-04-07T13:12:42.626Z,10.95
2023-04-07T13:15:14.259Z,5.28
2023-04-07T13:17:42.852Z,4.32
2023-04-07T13:20:11.545Z,6.05
2023-04-07T13:22:49.302Z,3.78
2023-04-07T13:25:21.732Z,4.15
2023-04-07T13:27:50.498Z,5.63
2023-04-07T13:30:22.689Z,2.85
2023-04-07T13:32:52.106Z,7.00
2023-04-07T13:35:21.155Z,4.70
2023-04-07T13:37:49.784Z,4.07
2023-04-07T13:40:19.118Z,4.72
2023-04-07T13:42:47.769Z,7.82
2023-04-07T13:45:16.856Z,5.47
2023-04-07T13:47:47.172Z,6.07
2023-04-07T13:50:16.208Z,4.28
2023-04-07T13:52:45.156Z,7.70
2023-04-07T13:55:13.667Z,6.93
2023-04-07T13:57:43.015Z,5.95
2023-04-07T14:00:12.299Z,6.57
2023-04-07T14:02:41.385Z,7.95
2023-04-07T14:05:11.336Z,5.10
2023-04-07T14:07:40.123Z,5.97
2023-04-07T14:10:11.417Z,5.75
2023-04-07T14:12:40.107Z,5.75
2023-04-07T14:15:09.921Z,6.38
2023-04-07T14:17:38.634Z,6.05
2023-04-07T14:20:09.232Z,5.43
2023-04-07T14:22:39.716Z,7.80
2023-04-07T14:25:08.715Z,5.18
2023-04-07T14:27:37.284Z,6.93
2023-04-07T14:30:07.104Z,6.90
2023-04-07T14:32:35.764Z,6.82
2023-04-07T14:35:04.621Z,5.97
2023-04-07T14:37:33.139Z,6.57
2023-04-07T14:40:05.241Z,6.95
2023-04-07T14:42:34.346Z,8.70
2023-04-07T14:45:02.954Z,7.72
2023-04-07T14:47:31.872Z,10.10
2023-04-07T14:50:01.094Z,9.50
2023-04-07T14:52:30.787Z,8.68
2023-04-07T14:55:00.594Z,7.22
2023-04-07T14:57:30.898Z,8.77
2023-04-07T14:59:59.998Z,8.43
2023-04-07T15:02:32.545Z,8.77
2023-04-07T15:05:01.788Z,7.50
2023-04-07T15:07:33.669Z,9.20
2023-04-07T15:10:02.555Z,7.68
2023-04-07T15:12:33.657Z,6.05
2023-04-07T15:15:02.407Z,8.07
2023-04-07T15:17:43.132Z,10.10
2023-04-07T15:20:14.070Z,6.05
2023-04-07T15:22:43.359Z,6.78
2023-04-07T15:25:13.300Z,7.22
2023-04-07T15:27:43.377Z,7.90
2023-04-07T15:30:12.973Z,8.43
2023-04-07T15:32:42.199Z,7.78
2023-04-07T15:35:11.157Z,8.48
2023-04-07T15:37:39.845Z,7.32
2023-04-07T15:40:10.151Z,8.70
2023-04-07T15:42:41.985Z,9.15
2023-04-07T15:47:41.765Z,7.97
2023-04-07T15:50:12.072Z,9.70
2023-04-07T15:52:41.023Z,8.88
2023-04-07T15:55:10.619Z,6.78
2023-04-07T15:57:41.292Z,8.88
2023-04-07T16:00:14.636Z,7.25
2023-04-07T16:02:43.854Z,7.45
2023-04-07T16:05:12.898Z,9.05
2023-04-07T16:07:42.836Z,10.82
2023-04-07T16:10:14.124Z,11.38
2023-04-07T16:12:45.739Z,15.25
2023-04-07T16:15:22.602Z,34.63
2023-04-07T16:17:54.696Z,22.40
2023-04-07T16:20:23.296Z,14.70
2023-04-07T16:22:51.992Z,12.13
2023-04-07T16:25:21.163Z,11.05
2023-04-07T16:27:49.660Z,9.18
2023-04-07T16:30:19.667Z,8.63
2023-04-07T16:32:48.604Z,7.50
2023-04-07T16:35:17.640Z,9.07
2023-04-07T16:37:47.085Z,5.28
2023-04-07T16:40:16.263Z,6.45
2023-04-07T16:42:44.903Z,5.85
2023-04-07T16:45:13.446Z,4.30
2023-04-07T16:47:44.724Z,4.60
2023-04-07T16:50:13.320Z,5.57
2023-04-07T16:52:42.093Z,9.15
2023-04-07T16:55:11.258Z,11.00
2023-04-07T16:57:40.239Z,9.18
2023-04-07T17:00:09.963Z,13.10
2023-04-07T17:02:38.919Z,11.15
2023-04-07T17:05:10.496Z,7.38
2023-04-07T17:07:39.662Z,7.82
2023-04-07T17:10:09.338Z,5.20
2023-04-07T17:12:38.079Z,8.48
2023-04-07T17:15:07.314Z,20.40
2023-04-07T17:17:37.010Z,12.60
2023-04-07T17:20:06.162Z,7.78
2023-04-07T17:22:36.274Z,7.57
2023-04-07T17:25:06.181Z,9.00
2023-04-07T17:27:34.983Z,7.28
2023-04-07T17:30:04.239Z,7.00
2023-04-07T17:32:32.925Z,6.97
2023-04-07T17:35:01.510Z,9.73
2023-04-07T17:37:30.476Z,9.88
2023-04-07T17:40:00.392Z,8.38
2023-04-07T17:42:28.898Z,7.35
2023-04-07T17:44:57.912Z,8.30
2023-04-07T17:47:26.490Z,7.43
2023-04-07T17:49:55.025Z,8.20
2023-04-07T17:52:23.672Z,7.93
2023-04-07T17:54:52.177Z,8.38
2023-04-07T17:57:22.215Z,9.52
2023-04-07T17:59:51.107Z,11.00
2023-04-07T18:02:20.273Z,8.60
2023-04-07T18:04:49.225Z,9.38
2023-04-07T18:07:18.108Z,9.90
2023-04-07T18:09:48.656Z,12.27
2023-04-07T18:12:17.688Z,9.23
2023-04-07T18:14:47.785Z,8.05
2023-04-07T18:17:17.707Z,8.55
2023-04-07T18:19:46.688Z,8.13
2023-04-07T18:22:16.354Z,7.38
2023-04-07T18:24:45.130Z,9.23
2023-04-07T18:27:14.021Z,7.63
2023-04-07T18:29:42.607Z,8.90
2023-04-07T18:32:12.583Z,9.07
2023-04-07T18:34:41.332Z,10.45
2023-04-07T18:37:09.960Z,8.27
2023-04-07T18:39:38.790Z,7.72
2023-04-07T18:42:07.513Z,8.57
2023-04-07T18:44:36.240Z,9.23
2023-04-07T18:47:04.953Z,10.68
2023-04-07T18:49:35.164Z,9.63
2023-04-07T18:52:04.513Z,9.52
2023-04-07T18:54:33.788Z,9.18
2023-04-07T18:57:05.986Z,10.90
2023-04-07T18:59:34.548Z,9.60
2023-04-07T19:02:03.303Z,9.25
2023-04-07T19:04:32.751Z,9.45
2023-04-07T19:07:02.668Z,10.88
2023-04-07T19:09:31.800Z,9.85
2023-04-07T19:12:00.500Z,11.27
2023-04-07T19:14:29.296Z,9.75
2023-04-07T19:16:57.923Z,8.75
2023-04-07T19:19:27.967Z,9.77
2023-04-07T19:21:56.772Z,8.75
2023-04-07T19:24:27.088Z,9.90
2023-04-07T19:26:57.276Z,9.77
2023-04-07T19:29:32.636Z,9.23
2023-04-07T19:32:02.353Z,10.52
2023-04-07T19:34:30.978Z,9.95
2023-04-07T19:36:59.637Z,12.75
2023-04-07T19:39:29.411Z,10.35
2023-04-07T19:41:58.236Z,12.70
2023-04-07T19:44:27.932Z,14.77
2023-04-07T19:46:56.552Z,13.15
2023-04-07T19:49:26.082Z,13.65
2023-04-07T19:51:55.216Z,13.55
2023-04-07T19:54:24.220Z,13.93
2023-04-07T19:56:55.733Z,16.63
2023-04-07T19:59:25.908Z,13.38
2023-04-07T20:01:54.724Z,12.88
2023-04-07T20:04:23.410Z,13.75
2023-04-07T20:06:51.882Z,12.52
2023-04-07T20:09:20.678Z,13.02
2023-04-07T20:11:49.283Z,11.07
2023-04-07T20:14:20.186Z,12.38
2023-04-07T20:16:48.761Z,12.35
2023-04-07T20:19:17.305Z,11.40
2023-04-07T20:21:45.869Z,11.75
2023-04-07T20:24:14.638Z,11.75
2023-04-07T20:26:43.237Z,13.85
2023-04-07T20:29:11.725Z,12.80
2023-04-07T20:31:42.302Z,11.80
2023-04-07T20:34:11.222Z,12.68
2023-04-07T20:36:39.848Z,12.70
2023-04-07T20:39:08.280Z,9.98
2023-04-07T20:41:37.341Z,11.00
2023-04-07T20:44:08.772Z,11.45
2023-04-07T20:46:39.569Z,14.15
2023-04-07T20:49:11.828Z,12.85
2023-04-07T20:51:41.785Z,11.25
2023-04-07T20:54:11.142Z,11.93
2023-04-07T20:56:39.640Z,10.70
2023-04-07T20:59:08.292Z,11.88
2023-04-07T21:01:38.745Z,11.93
2023-04-07T21:04:11.899Z,11.50
2023-04-07T21:06:42.719Z,11.23
2023-04-07T21:09:11.154Z,12.70
2023-04-07T21:11:40.276Z,12.88
2023-04-07T21:14:08.954Z,12.05
2023-04-07T21:16:38.441Z,14.65
2023-04-07T21:19:07.722Z,12.50
2023-04-07T21:21:38.945Z,15.40
2023-04-07T21:24:09.038Z,12.60
2023-04-07T21:26:38.793Z,12.32
2023-04-07T21:29:08.865Z,12.20
2023-04-07T21:31:38.034Z,15.43
2023-04-07T21:34:07.537Z,12.98
2023-04-07T21:36:37.086Z,11.73
2023-04-07T21:39:08.285Z,11.05
2023-04-07T21:41:37.534Z,12.70
2023-04-07T21:44:11.051Z,11.77
2023-04-07T21:46:41.229Z,11.98
2023-04-07T21:49:10.903Z,12.82
2023-04-07T21:51:39.634Z,12.80
2023-04-07T21:54:12.612Z,12.52
2023-04-07T21:56:41.766Z,12.13
2023-04-07T21:59:10.378Z,15.90
2023-04-07T22:01:39.408Z,14.20
2023-04-07T22:04:08.405Z,11.25
2023-04-07T22:06:39.218Z,13.25
2023-04-07T22:09:11.266Z,13.98
2023-04-07T22:11:42.900Z,12.07
2023-04-07T22:14:11.659Z,13.95
2023-04-07T22:16:40.904Z,14.00
2023-04-07T22:19:09.899Z,12.20
2023-04-07T22:21:38.585Z,13.57
2023-04-07T22:24:07.556Z,12.80
2023-04-07T22:26:39.277Z,10.63
2023-04-07T22:29:09.398Z,12.32
2023-04-07T22:31:38.509Z,15.85
2023-04-07T22:34:09.109Z,13.70
2023-04-07T22:36:39.026Z,11.57
2023-04-07T22:39:08.493Z,13.30
2023-04-07T22:41:38.644Z,13.40
2023-04-07T22:44:07.817Z,17.17
2023-04-07T22:46:37.219Z,14.70
2023-04-07T22:49:06.451Z,13.57
2023-04-07T22:51:35.634Z,12.55
2023-04-07T22:54:05.409Z,13.15
2023-04-07T22:56:36.857Z,11.82
2023-04-07T22:59:08.407Z,11.90
2023-04-07T23:01:39.988Z,12.75
2023-04-07T23:04:08.686Z,13.13
2023-04-07T23:06:38.285Z,13.55
2023-04-07T23:09:06.855Z,14.98
2023-04-07T23:11:35.281Z,14.57
2023-04-07T23:14:06.060Z,16.55
2023-04-07T23:16:36.148Z,15.48
2023-04-07T23:19:04.931Z,14.27
2023-04-07T23:21:33.570Z,13.75
2023-04-07T23:24:01.938Z,12.57
2023-04-07T23:26:31.775Z,17.30
2023-04-07T23:29:00.566Z,11.15
2023-04-07T23:31:29.628Z,13.90
2023-04-07T23:34:01.307Z,11.32
2023-04-07T23:36:30.121Z,11.70
2023-04-07T23:38:58.905Z,13.10
2023-04-07T23:41:27.290Z,19.13
2023-04-07T23:43:56.454Z,13.98
2023-04-07T23:46:26.723Z,16.10
2023-04-07T23:48:55.439Z,11.48
2023-04-07T23:51:25.570Z,9.40
2023-04-07T23:53:54.665Z,9.80
2023-04-07T23:56:23.086Z,8.98
2023-04-07T23:58:51.974Z,11.60
